createdAt,value
2018-04-25T00:01:40.813Z,16.89
2018-04-25T00:04:09.195Z,16.92
2018-04-25T00:06:37.579Z,16.95
2018-04-25T00:09:05.479Z,16.97
2018-04-25T00:11:33.870Z,16.86
2018-04-25T00:16:35.776Z,16.88
2018-04-25T00:19:04.898Z,16.80
2018-04-25T00:21:33.323Z,16.80
2018-04-25T00:24:01.760Z,16.79
2018-04-25T00:26:30.203Z,16.79
2018-04-25T00:28:58.676Z,16.78
2018-04-25T00:31:27.050Z,16.73
2018-04-25T00:33:55.424Z,16.74
2018-04-25T00:36:23.843Z,16.78
2018-04-25T00:38:52.285Z,16.84
2018-04-25T00:41:20.718Z,16.87
2018-04-25T00:43:49.151Z,16.85
2018-04-25T00:46:17.636Z,16.83
2018-04-25T00:48:46.065Z,16.84
2018-04-25T00:51:14.541Z,16.86
2018-04-25T00:53:42.991Z,16.85
2018-04-25T00:56:11.463Z,16.80
2018-04-25T00:58:39.890Z,16.83
2018-04-25T01:01:08.301Z,16.74
2018-04-25T01:03:36.737Z,16.69
2018-04-25T01:06:04.938Z,16.64
2018-04-25T01:08:33.400Z,16.58
2018-04-25T01:11:01.894Z,16.54
2018-04-25T01:13:30.319Z,16.54
2018-04-25T01:15:58.747Z,16.52
2018-04-25T01:18:26.955Z,16.47
2018-04-25T01:20:54.930Z,16.42
2018-04-25T01:23:24.392Z,16.41
2018-04-25T01:25:58.335Z,16.39
2018-04-25T01:28:26.327Z,16.43
2018-04-25T01:30:55.154Z,16.38
2018-04-25T01:33:23.307Z,16.37
2018-04-25T01:35:58.868Z,16.34
2018-04-25T01:38:30.381Z,16.33
2018-04-25T01:40:58.818Z,16.31
2018-04-25T01:43:26.801Z,16.30
2018-04-25T01:49:20.540Z,16.20
2018-04-25T01:52:00.274Z,16.08
2018-04-25T01:54:40.067Z,16.01
2018-04-25T01:57:19.780Z,15.93
2018-04-25T01:59:59.584Z,15.90
2018-04-25T02:02:27.003Z,15.84
2018-04-25T02:04:55.439Z,15.81
2018-04-25T02:07:23.917Z,15.77
2018-04-25T02:09:52.353Z,15.72
2018-04-25T02:12:20.791Z,15.70
2018-04-25T02:14:49.002Z,15.72
2018-04-25T02:17:17.455Z,15.74
2018-04-25T02:19:45.885Z,15.73
2018-04-25T02:22:14.320Z,15.74
2018-04-25T02:24:42.758Z,15.75
2018-04-25T02:27:11.208Z,15.66
2018-04-25T02:29:39.640Z,15.56
2018-04-25T02:32:08.126Z,15.54
2018-04-25T02:34:36.570Z,15.54
2018-04-25T02:37:05.003Z,15.48
2018-04-25T02:39:33.459Z,15.47
2018-04-25T02:42:01.906Z,15.47
2018-04-25T02:44:30.340Z,15.35
2018-04-25T02:46:58.784Z,15.30
2018-04-25T02:49:27.277Z,15.22
2018-04-25T02:51:55.725Z,15.16
2018-04-25T02:54:24.163Z,15.18
2018-04-25T02:56:52.594Z,15.18
2018-04-25T02:59:21.025Z,15.16
2018-04-25T03:01:49.984Z,15.11
2018-04-25T03:04:18.419Z,15.09
2018-04-25T03:06:46.842Z,15.11
2018-04-25T03:09:15.271Z,15.07
2018-04-25T03:11:43.691Z,15.04
2018-04-25T03:14:12.128Z,15.04
2018-04-25T03:16:40.555Z,15.03
2018-04-25T03:19:09.000Z,15.01
2018-04-25T03:21:37.477Z,15.01
2018-04-25T03:24:05.923Z,14.99
2018-04-25T03:26:34.363Z,15.01
2018-04-25T03:29:02.807Z,15.00
2018-04-25T03:31:31.272Z,15.05
2018-04-25T03:33:59.731Z,15.09
2018-04-25T03:36:28.151Z,15.15
2018-04-25T03:41:31.146Z,15.18
2018-04-25T03:43:59.660Z,15.20
2018-04-25T03:46:28.096Z,15.25
2018-04-25T03:48:56.538Z,15.17
2018-04-25T03:51:24.972Z,15.18
2018-04-25T03:53:53.421Z,15.17
2018-04-25T03:56:21.962Z,15.22
2018-04-25T03:58:50.409Z,15.24
2018-04-25T04:01:18.919Z,15.23
2018-04-25T04:03:47.356Z,15.28
2018-04-25T04:06:15.803Z,15.26
2018-04-25T04:08:44.243Z,15.24
2018-04-25T04:11:12.456Z,15.29
2018-04-25T04:13:40.935Z,15.36
2018-04-25T04:16:09.378Z,15.38
2018-04-25T04:18:37.817Z,15.41
2018-04-25T04:21:06.260Z,15.49
2018-04-25T04:23:34.686Z,15.75
2018-04-25T04:26:03.175Z,16.25
2018-04-25T04:28:31.705Z,16.93
2018-04-25T04:31:00.184Z,17.54
2018-04-25T04:33:28.606Z,18.16
2018-04-25T04:35:57.083Z,18.75
2018-04-25T04:38:25.601Z,19.22
2018-04-25T04:40:54.050Z,19.50
2018-04-25T04:43:22.831Z,19.74
2018-04-25T04:45:52.006Z,20.09
2018-04-25T04:48:20.480Z,20.58
2018-04-25T04:50:48.995Z,21.00
2018-04-25T04:53:17.463Z,21.56
2018-04-25T04:55:45.916Z,21.65
2018-04-25T04:58:14.389Z,21.89
2018-04-25T05:00:42.818Z,22.01
2018-04-25T05:03:11.023Z,22.05
2018-04-25T05:05:40.347Z,21.86
2018-04-25T05:08:08.776Z,21.74
2018-04-25T05:10:37.257Z,21.51
2018-04-25T05:13:06.268Z,21.12
2018-04-25T05:15:34.852Z,20.69
2018-04-25T05:18:03.310Z,20.45
2018-04-25T05:20:31.753Z,20.36
2018-04-25T05:23:00.199Z,19.99
2018-04-25T05:25:28.674Z,19.85
2018-04-25T05:27:57.115Z,19.65
2018-04-25T05:30:25.588Z,19.62
2018-04-25T05:32:54.094Z,19.48
2018-04-25T05:35:22.536Z,19.53
2018-04-25T05:37:51.027Z,19.47
2018-04-25T05:40:19.467Z,19.36
2018-04-25T05:42:47.948Z,19.41
2018-04-25T05:45:16.147Z,19.44
2018-04-25T05:47:44.648Z,19.31
2018-04-25T05:50:12.848Z,19.30
2018-04-25T05:52:41.324Z,19.27
2018-04-25T05:55:09.824Z,19.14
2018-04-25T05:57:38.297Z,18.83
2018-04-25T06:00:06.783Z,18.82
2018-04-25T06:02:35.216Z,18.79
2018-04-25T06:05:03.717Z,18.74
2018-04-25T06:07:32.183Z,18.73
2018-04-25T06:10:00.679Z,18.42
2018-04-25T06:12:29.209Z,18.26
2018-04-25T06:14:57.652Z,18.29
2018-04-25T06:17:26.093Z,18.40
2018-04-25T06:19:54.661Z,18.40
2018-04-25T06:22:23.104Z,18.48
2018-04-25T06:24:51.543Z,18.49
2018-04-25T06:27:19.979Z,18.51
2018-04-25T06:29:48.418Z,18.53
2018-04-25T06:32:16.866Z,18.69
2018-04-25T06:34:45.303Z,18.89
2018-04-25T06:37:13.736Z,19.00
2018-04-25T06:39:42.190Z,19.12
2018-04-25T06:42:10.620Z,18.98
2018-04-25T06:44:39.054Z,19.03
2018-04-25T06:47:07.705Z,19.07
2018-04-25T06:49:36.182Z,19.11
2018-04-25T06:52:04.615Z,19.15
2018-04-25T06:54:33.060Z,19.27
2018-04-25T06:57:01.486Z,19.43
2018-04-25T06:59:29.956Z,19.54
2018-04-25T07:01:58.394Z,19.55
2018-04-25T07:04:26.842Z,19.61
2018-04-25T07:06:55.310Z,19.65
2018-04-25T07:09:23.807Z,19.60
2018-04-25T07:11:52.313Z,19.65
2018-04-25T07:14:21.371Z,19.61
2018-04-25T07:16:49.863Z,19.77
2018-04-25T07:19:18.178Z,19.85
2018-04-25T07:21:46.655Z,19.94
2018-04-25T07:24:15.136Z,20.10
2018-04-25T07:26:43.631Z,20.10
2018-04-25T07:29:12.087Z,20.26
2018-04-25T07:31:40.573Z,20.40
2018-04-25T07:34:09.374Z,20.30
2018-04-25T07:36:37.828Z,20.28
2018-04-25T07:39:06.035Z,20.31
2018-04-25T07:41:34.502Z,20.45
2018-04-25T07:44:03.179Z,20.57
2018-04-25T07:46:31.446Z,20.60
2018-04-25T07:49:01.020Z,20.62
2018-04-25T07:51:29.451Z,20.68
2018-04-25T07:53:57.922Z,20.76
2018-04-25T07:56:26.387Z,20.83
2018-04-25T07:58:55.092Z,20.91
2018-04-25T08:01:23.589Z,21.00
2018-04-25T08:03:52.074Z,21.05
2018-04-25T08:06:20.551Z,21.12
2018-04-25T08:08:49.010Z,21.22
2018-04-25T08:11:17.479Z,21.29
2018-04-25T08:13:57.256Z,21.30
2018-04-25T08:16:36.977Z,21.32
2018-04-25T08:19:26.443Z,21.42
2018-04-25T08:21:54.871Z,21.59
2018-04-25T08:24:23.376Z,21.59
2018-04-25T08:26:51.808Z,21.64
2018-04-25T08:29:20.244Z,21.70
2018-04-25T08:31:48.733Z,21.77
2018-04-25T08:34:17.203Z,21.77
2018-04-25T08:36:45.856Z,21.85
2018-04-25T08:39:14.334Z,21.89
2018-04-25T08:41:43.005Z,21.94
2018-04-25T08:44:11.466Z,22.04
2018-04-25T08:46:39.890Z,22.17
2018-04-25T08:49:08.351Z,22.22
2018-04-25T08:51:36.858Z,22.25
2018-04-25T08:54:05.318Z,22.31
2018-04-25T08:56:34.386Z,22.40
2018-04-25T08:59:02.849Z,22.31
2018-04-25T09:01:31.318Z,22.31
2018-04-25T09:04:00.091Z,22.37
2018-04-25T09:06:28.567Z,22.38
2018-04-25T09:08:57.047Z,22.44
2018-04-25T09:11:25.491Z,22.52
2018-04-25T09:13:54.896Z,22.65
2018-04-25T09:16:24.566Z,22.69
2018-04-25T09:18:52.995Z,22.80
2018-04-25T09:21:21.174Z,22.86
2018-04-25T09:23:49.630Z,23.00
2018-04-25T09:26:18.111Z,23.13
2018-04-25T09:28:46.563Z,23.24
2018-04-25T09:31:14.989Z,23.31
2018-04-25T09:33:43.447Z,23.24
2018-04-25T09:36:11.899Z,23.32
2018-04-25T09:38:40.344Z,23.31
2018-04-25T09:41:10.616Z,23.31
2018-04-25T09:43:39.086Z,23.40
2018-04-25T09:46:07.531Z,23.40
2018-04-25T09:48:36.501Z,23.32
2018-04-25T09:51:04.816Z,23.30
2018-04-25T09:53:33.252Z,23.36
2018-04-25T09:56:01.682Z,23.43
2018-04-25T09:58:30.148Z,23.39
2018-04-25T10:00:58.350Z,23.42
2018-04-25T10:03:26.655Z,23.48
2018-04-25T10:05:55.108Z,23.51
2018-04-25T10:08:23.505Z,23.58
2018-04-25T10:10:51.969Z,23.61
2018-04-25T10:13:20.497Z,23.64
2018-04-25T10:15:48.890Z,23.74
2018-04-25T10:18:17.288Z,23.79
2018-04-25T10:20:45.710Z,23.85
2018-04-25T10:23:14.089Z,23.95
2018-04-25T10:28:17.009Z,24.06
2018-04-25T10:30:45.411Z,24.10
2018-04-25T10:33:13.916Z,24.13
2018-04-25T10:35:42.283Z,24.23
2018-04-25T10:38:10.668Z,24.26
2018-04-25T10:40:39.034Z,24.29
2018-04-25T10:43:07.432Z,24.34
2018-04-25T10:45:35.804Z,24.38
2018-04-25T10:48:04.166Z,24.34
2018-04-25T10:50:32.560Z,24.38
2018-04-25T10:53:00.931Z,24.44
2018-04-25T10:55:29.411Z,24.48
2018-04-25T10:57:57.903Z,24.47
2018-04-25T11:00:26.498Z,24.62
2018-04-25T11:02:54.860Z,24.68
2018-04-25T11:05:23.246Z,24.66
2018-04-25T11:07:51.626Z,24.68
2018-04-25T11:10:20.064Z,24.76
2018-04-25T11:12:48.443Z,24.84
2018-04-25T11:15:16.744Z,24.95
2018-04-25T11:17:45.133Z,25.01
2018-04-25T11:20:13.507Z,25.08
2018-04-25T11:22:41.886Z,25.11
2018-04-25T11:25:10.264Z,25.11
2018-04-25T11:27:38.639Z,25.14
2018-04-25T11:30:07.062Z,25.19
2018-04-25T11:32:35.454Z,25.22
2018-04-25T11:35:03.831Z,25.19
2018-04-25T11:37:32.215Z,25.18
2018-04-25T11:40:00.488Z,25.27
2018-04-25T11:42:28.871Z,25.28
2018-04-25T11:44:57.247Z,25.37
2018-04-25T11:47:25.745Z,25.19
2018-04-25T11:49:53.877Z,25.08
2018-04-25T11:52:22.238Z,25.12
2018-04-25T11:54:50.638Z,25.18
2018-04-25T11:57:19.042Z,25.26
2018-04-25T11:59:47.439Z,25.44
2018-04-25T12:02:15.818Z,25.67
2018-04-25T12:04:45.114Z,25.76
2018-04-25T12:07:14.011Z,25.65
2018-04-25T12:09:42.410Z,25.59
2018-04-25T12:12:10.820Z,25.53
2018-04-25T12:14:39.204Z,25.58
2018-04-25T12:17:07.571Z,25.59
2018-04-25T12:19:35.955Z,25.66
2018-04-25T12:22:04.321Z,25.75
2018-04-25T12:24:32.690Z,25.70
2018-04-25T12:27:01.075Z,25.74
2018-04-25T12:29:29.555Z,25.82
2018-04-25T12:31:57.937Z,25.95
2018-04-25T12:34:26.353Z,25.96
2018-04-25T12:36:54.726Z,25.98
2018-04-25T12:39:23.102Z,25.99
2018-04-25T12:41:51.507Z,26.08
2018-04-25T12:44:19.885Z,26.23
2018-04-25T12:46:48.264Z,26.30
2018-04-25T12:49:16.686Z,26.27
2018-04-25T12:51:45.115Z,26.23
2018-04-25T12:54:13.487Z,26.13
2018-04-25T12:56:41.823Z,26.21
2018-04-25T12:59:10.206Z,26.18
2018-04-25T13:01:38.696Z,26.14
2018-04-25T13:04:07.151Z,26.07
2018-04-25T13:06:35.522Z,25.94
2018-04-25T13:09:03.784Z,26.01
2018-04-25T13:11:32.339Z,26.20
2018-04-25T13:14:00.754Z,26.36
2018-04-25T13:16:29.163Z,26.31
2018-04-25T13:18:57.542Z,26.36
2018-04-25T13:21:26.007Z,26.45
2018-04-25T13:26:41.487Z,26.29
2018-04-25T13:29:09.798Z,26.24
2018-04-25T13:31:38.311Z,26.14
2018-04-25T13:34:06.695Z,26.14
2018-04-25T13:36:35.115Z,26.06
2018-04-25T13:39:03.246Z,25.99
2018-04-25T13:41:31.842Z,26.07
2018-04-25T13:44:00.027Z,26.05
2018-04-25T13:46:28.168Z,26.18
2018-04-25T13:48:56.533Z,26.13
2018-04-25T13:51:24.946Z,25.99
2018-04-25T13:53:53.340Z,26.01
2018-04-25T13:56:21.740Z,26.02
2018-04-25T13:58:50.130Z,26.14
2018-04-25T14:01:18.547Z,26.21
2018-04-25T14:03:46.922Z,26.24
2018-04-25T14:06:15.405Z,26.25
2018-04-25T14:08:43.909Z,26.27
2018-04-25T14:11:12.092Z,26.24
2018-04-25T14:13:40.472Z,26.26
2018-04-25T14:16:08.880Z,26.25
2018-04-25T14:18:37.290Z,26.28
2018-04-25T14:21:05.713Z,26.25
2018-04-25T14:23:34.092Z,26.22
2018-04-25T14:26:02.465Z,26.24
2018-04-25T14:28:30.879Z,26.21
2018-04-25T14:30:59.348Z,26.30
2018-04-25T14:33:27.735Z,26.11
2018-04-25T14:35:56.132Z,26.21
2018-04-25T14:38:24.564Z,26.27
2018-04-25T14:40:53.153Z,26.12
2018-04-25T14:43:21.533Z,25.90
2018-04-25T14:45:49.961Z,25.83
2018-04-25T14:48:18.344Z,25.95
2018-04-25T14:50:46.808Z,26.04
2018-04-25T14:53:15.187Z,26.00
2018-04-25T14:55:43.576Z,26.01
2018-04-25T14:58:11.717Z,25.97
2018-04-25T15:00:40.127Z,26.00
2018-04-25T15:03:08.502Z,26.00
2018-04-25T15:05:36.915Z,26.15
2018-04-25T15:08:05.047Z,26.22
2018-04-25T15:10:33.468Z,26.31
2018-04-25T15:13:01.854Z,26.34
2018-04-25T15:15:31.071Z,26.32
2018-04-25T15:17:59.601Z,26.31
2018-04-25T15:20:27.970Z,26.35
2018-04-25T15:22:56.338Z,26.36
2018-04-25T15:25:24.865Z,26.26
2018-04-25T15:27:53.363Z,26.03
2018-04-25T15:30:21.790Z,25.97
2018-04-25T15:32:50.167Z,26.05
2018-04-25T15:35:18.546Z,25.99
2018-04-25T15:37:47.014Z,26.03
2018-04-25T15:40:15.795Z,25.90
2018-04-25T15:42:44.184Z,25.88
2018-04-25T15:45:12.327Z,25.73
2018-04-25T15:47:40.716Z,25.65
2018-04-25T15:50:09.121Z,25.61
2018-04-25T15:52:37.541Z,25.66
2018-04-25T15:55:05.961Z,25.61
2018-04-25T15:57:34.363Z,25.70
2018-04-25T16:00:04.079Z,25.76
2018-04-25T16:02:32.441Z,25.67
2018-04-25T16:05:00.827Z,25.51
2018-04-25T16:07:29.190Z,25.30
2018-04-25T16:09:57.592Z,25.31
2018-04-25T16:12:25.996Z,25.21
2018-04-25T16:14:54.134Z,25.14
2018-04-25T16:17:22.501Z,25.08
2018-04-25T16:19:50.947Z,25.06
2018-04-25T16:22:19.398Z,25.15
2018-04-25T16:24:47.793Z,25.09
2018-04-25T16:27:15.933Z,25.08
2018-04-25T16:29:44.294Z,25.08
2018-04-25T16:32:12.723Z,25.01
2018-04-25T16:34:41.108Z,24.86
2018-04-25T16:37:09.257Z,24.80
2018-04-25T16:39:37.622Z,24.67
2018-04-25T16:42:06.023Z,24.61
2018-04-25T16:44:34.439Z,24.55
2018-04-25T16:47:02.821Z,24.48
2018-04-25T16:49:31.191Z,24.41
2018-04-25T16:51:59.595Z,24.37
2018-04-25T16:54:27.985Z,24.27
2018-04-25T16:56:56.400Z,24.22
2018-04-25T16:59:24.541Z,24.17
2018-04-25T17:01:52.923Z,24.14
2018-04-25T17:04:21.288Z,24.06
2018-04-25T17:06:49.681Z,23.97
2018-04-25T17:09:18.087Z,23.98
2018-04-25T17:11:46.450Z,23.90
2018-04-25T17:14:14.822Z,23.82
2018-04-25T17:16:43.195Z,23.75
2018-04-25T17:19:11.550Z,23.64
2018-04-25T17:21:40.792Z,23.65
2018-04-25T17:24:08.954Z,23.53
2018-04-25T17:26:37.378Z,23.46
2018-04-25T17:29:05.766Z,23.46
2018-04-25T17:31:34.156Z,23.32
2018-04-25T17:34:02.539Z,23.32
2018-04-25T17:36:30.910Z,23.22
2018-04-25T17:38:59.327Z,23.06
2018-04-25T17:41:28.659Z,23.04
2018-04-25T17:43:57.100Z,22.96
2018-04-25T17:46:25.615Z,22.84
2018-04-25T17:48:53.983Z,22.74
2018-04-25T17:51:22.424Z,22.68
2018-04-25T17:53:50.846Z,22.55
2018-04-25T17:56:19.223Z,22.45
2018-04-25T17:58:47.648Z,22.38
2018-04-25T18:01:16.034Z,22.38
2018-04-25T18:03:44.408Z,22.41
2018-04-25T18:06:13.379Z,22.49
2018-04-25T18:08:41.766Z,22.53
2018-04-25T18:11:10.187Z,22.50
2018-04-25T18:13:38.564Z,22.54
2018-04-25T18:16:06.936Z,22.57
2018-04-25T18:18:35.353Z,22.57
2018-04-25T18:21:03.758Z,22.65
2018-04-25T18:23:32.136Z,22.68
2018-04-25T18:26:00.575Z,22.70
2018-04-25T18:28:28.983Z,22.73
2018-04-25T18:30:57.406Z,22.72
2018-04-25T18:33:25.810Z,22.74
2018-04-25T18:35:54.398Z,22.75
2018-04-25T18:38:22.786Z,22.69
2018-04-25T18:40:51.225Z,22.65
2018-04-25T18:43:19.645Z,22.64
2018-04-25T18:45:48.033Z,22.49
2018-04-25T18:48:16.539Z,22.34
2018-04-25T18:50:44.943Z,22.23
2018-04-25T18:53:13.323Z,22.12
2018-04-25T18:55:41.712Z,22.10
2018-04-25T18:58:10.087Z,22.06
2018-04-25T19:00:38.550Z,22.01
2018-04-25T19:03:06.994Z,22.03
2018-04-25T19:05:35.546Z,21.99
2018-04-25T19:08:03.956Z,21.94
2018-04-25T19:10:32.439Z,21.91
2018-04-25T19:13:00.867Z,21.87
2018-04-25T19:15:29.857Z,21.82
2018-04-25T19:17:58.228Z,21.82
2018-04-25T19:20:26.639Z,21.81
2018-04-25T19:22:54.818Z,21.81
2018-04-25T19:25:23.189Z,21.73
2018-04-25T19:27:51.555Z,21.70
2018-04-25T19:30:22.610Z,21.65
2018-04-25T19:32:50.987Z,21.60
2018-04-25T19:35:19.131Z,21.57
2018-04-25T19:37:47.551Z,21.55
2018-04-25T19:40:15.930Z,21.53
2018-04-25T19:42:59.260Z,21.55
2018-04-25T19:45:27.554Z,21.54
2018-04-25T19:47:55.948Z,21.45
2018-04-25T19:50:24.369Z,21.36
2018-04-25T19:52:52.814Z,21.36
2018-04-25T19:55:21.252Z,21.31
2018-04-25T19:57:49.622Z,21.23
2018-04-25T20:00:18.054Z,21.13
2018-04-25T20:02:46.429Z,21.14
2018-04-25T20:05:14.805Z,21.09
2018-04-25T20:07:43.211Z,21.03
2018-04-25T20:10:11.635Z,20.93
2018-04-25T20:12:40.006Z,20.90
2018-04-25T20:15:08.435Z,20.88
2018-04-25T20:17:36.821Z,20.85
2018-04-25T20:20:04.782Z,20.83
2018-04-25T20:22:33.310Z,20.77
2018-04-25T20:25:01.695Z,20.75
2018-04-25T20:27:30.074Z,20.72
2018-04-25T20:29:58.518Z,20.71
2018-04-25T20:32:26.901Z,20.68
2018-04-25T20:34:55.323Z,20.57
2018-04-25T20:37:26.105Z,20.48
2018-04-25T20:39:54.490Z,20.39
2018-04-25T20:42:22.924Z,20.30
2018-04-25T20:44:51.307Z,20.22
2018-04-25T20:47:19.682Z,20.19
2018-04-25T20:49:48.090Z,20.19
2018-04-25T20:52:16.491Z,20.16
2018-04-25T20:54:45.063Z,20.13
2018-04-25T20:57:13.445Z,20.12
2018-04-25T20:59:41.833Z,20.10
2018-04-25T21:02:10.202Z,20.09
2018-04-25T21:04:38.624Z,19.97
2018-04-25T21:07:06.999Z,19.85
2018-04-25T21:09:35.424Z,19.76
2018-04-25T21:12:03.848Z,19.70
2018-04-25T21:14:32.224Z,19.61
2018-04-25T21:17:00.634Z,19.52
2018-04-25T21:19:29.060Z,19.46
2018-04-25T21:21:57.476Z,19.36
2018-04-25T21:24:25.654Z,19.24
2018-04-25T21:26:53.813Z,19.19
2018-04-25T21:29:22.250Z,19.15
2018-04-25T21:31:50.687Z,19.12
2018-04-25T21:34:19.136Z,19.07
2018-04-25T21:36:47.511Z,18.99
2018-04-25T21:39:15.935Z,19.00
2018-04-25T21:41:44.354Z,19.01
2018-04-25T21:44:12.725Z,18.99
2018-04-25T21:46:41.097Z,18.92
2018-04-25T21:49:09.472Z,18.86
2018-04-25T21:51:37.897Z,18.88
2018-04-25T21:54:06.338Z,18.94
2018-04-25T21:56:34.715Z,18.98
2018-04-25T21:59:03.102Z,19.07
2018-04-25T22:01:31.525Z,19.06
2018-04-25T22:03:59.965Z,19.07
2018-04-25T22:06:28.352Z,19.09
2018-04-25T22:08:56.743Z,19.08
2018-04-25T22:11:25.120Z,19.02
2018-04-25T22:13:53.521Z,18.95
2018-04-25T22:16:22.187Z,18.92
2018-04-25T22:18:50.408Z,18.93
2018-04-25T22:21:18.788Z,18.93
2018-04-25T22:23:47.177Z,18.87
2018-04-25T22:26:15.579Z,18.72
2018-04-25T22:28:43.972Z,18.61
2018-04-25T22:31:12.357Z,18.54
2018-04-25T22:33:40.750Z,18.54
2018-04-25T22:36:09.120Z,18.46
2018-04-25T22:38:37.512Z,18.37
2018-04-25T22:41:05.900Z,18.36
2018-04-25T22:43:34.286Z,18.34
2018-04-25T22:46:02.703Z,18.22
2018-04-25T22:48:31.075Z,18.17
2018-04-25T22:50:59.455Z,18.14
2018-04-25T22:53:27.851Z,18.14
2018-04-25T22:55:56.222Z,18.07
2018-04-25T22:58:24.627Z,18.01
2018-04-25T23:00:52.998Z,17.98
2018-04-25T23:03:21.377Z,17.95
2018-04-25T23:05:49.767Z,17.92
2018-04-25T23:08:18.163Z,17.89
2018-04-25T23:10:46.745Z,17.83
2018-04-25T23:13:15.140Z,17.84
2018-04-25T23:15:43.516Z,17.83
2018-04-25T23:18:11.905Z,17.81
2018-04-25T23:20:40.290Z,17.76
2018-04-25T23:23:08.662Z,17.76
2018-04-25T23:25:37.039Z,17.75
2018-04-25T23:28:05.437Z,17.79
2018-04-25T23:30:33.868Z,17.79
2018-04-25T23:33:02.257Z,17.76
2018-04-25T23:35:30.627Z,17.70
2018-04-25T23:37:58.991Z,17.69
2018-04-25T23:40:27.361Z,17.68
2018-04-25T23:42:55.743Z,17.62
2018-04-25T23:45:24.129Z,17.50
2018-04-25T23:47:52.551Z,17.44
2018-04-25T23:50:20.923Z,17.42
2018-04-25T23:52:49.330Z,17.31
2018-04-25T23:55:17.712Z,17.27
2018-04-25T23:57:46.139Z,17.28
